sensor_id;sensor_type;location;lat;lon;timestamp;P1;durP1;ratioP1;P2;durP2;ratioP2
71902;SDS011;59778;50.310;18.780;2023-01-20T00:11:43;90.43;;;29.90;;
71902;SDS011;59778;50.310;18.780;2023-01-20T00:27:05;57.60;;;24.27;;
71902;SDS011;59778;50.310;18.780;2023-01-20T00:42:27;76.17;;;27.50;;
71902;SDS011;59778;50.310;18.780;2023-01-20T00:57:48;89.73;;;32.23;;
71902;SDS011;59778;50.310;18.780;2023-01-20T01:13:10;76.73;;;26.40;;
71902;SDS011;59778;50.310;18.780;2023-01-20T01:28:31;62.70;;;25.10;;
71902;SDS011;59778;50.310;18.780;2023-01-20T01:43:59;54.90;;;23.10;;
71902;SDS011;59778;50.310;18.780;2023-01-20T01:59:21;56.47;;;23.00;;
71902;SDS011;59778;50.310;18.780;2023-01-20T02:14:45;75.90;;;30.80;;
71902;SDS011;59778;50.310;18.780;2023-01-20T02:46:03;60.43;;;25.03;;
71902;SDS011;59778;50.310;18.780;2023-01-20T03:01:32;53.40;;;22.03;;
71902;SDS011;59778;50.310;18.780;2023-01-20T03:17:00;43.83;;;17.93;;
71902;SDS011;59778;50.310;18.780;2023-01-20T03:32:07;46.83;;;18.90;;
71902;SDS011;59778;50.310;18.780;2023-01-20T04:03:02;56.97;;;21.67;;
71902;SDS011;59778;50.310;18.780;2023-01-20T04:18:28;109.27;;;35.77;;
71902;SDS011;59778;50.310;18.780;2023-01-20T04:33:49;69.17;;;28.50;;
71902;SDS011;59778;50.310;18.780;2023-01-20T04:49:11;65.00;;;23.03;;
71902;SDS011;59778;50.310;18.780;2023-01-20T05:04:32;52.37;;;20.13;;
71902;SDS011;59778;50.310;18.780;2023-01-20T05:19:54;56.20;;;20.03;;
71902;SDS011;59778;50.310;18.780;2023-01-20T05:35:15;62.63;;;22.33;;
71902;SDS011;59778;50.310;18.780;2023-01-20T05:50:36;62.73;;;22.40;;
71902;SDS011;59778;50.310;18.780;2023-01-20T06:05:58;52.23;;;21.40;;
71902;SDS011;59778;50.310;18.780;2023-01-20T06:21:20;62.90;;;22.47;;
71902;SDS011;59778;50.310;18.780;2023-01-20T06:36:42;62.33;;;22.07;;
71902;SDS011;59778;50.310;18.780;2023-01-20T06:52:03;73.00;;;26.17;;
71902;SDS011;59778;50.310;18.780;2023-01-20T07:07:23;117.33;;;46.27;;
71902;SDS011;59778;50.310;18.780;2023-01-20T07:22:44;99.63;;;35.20;;
71902;SDS011;59778;50.310;18.780;2023-01-20T07:38:05;83.13;;;29.80;;
71902;SDS011;59778;50.310;18.780;2023-01-20T07:53:37;82.17;;;31.40;;
71902;SDS011;59778;50.310;18.780;2023-01-20T08:08:50;85.90;;;31.77;;
71902;SDS011;59778;50.310;18.780;2023-01-20T08:23:55;100.53;;;34.77;;
71902;SDS011;59778;50.310;18.780;2023-01-20T08:39:18;92.67;;;34.57;;
71902;SDS011;59778;50.310;18.780;2023-01-20T08:54:20;105.37;;;35.73;;
71902;SDS011;59778;50.310;18.780;2023-01-20T09:09:43;80.40;;;29.07;;
71902;SDS011;59778;50.310;18.780;2023-01-20T09:25:04;79.60;;;27.77;;
71902;SDS011;59778;50.310;18.780;2023-01-20T09:40:30;66.10;;;25.03;;
71902;SDS011;59778;50.310;18.780;2023-01-20T09:56:18;67.77;;;26.40;;
71902;SDS011;59778;50.310;18.780;2023-01-20T10:11:44;47.10;;;17.80;;
71902;SDS011;59778;50.310;18.780;2023-01-20T10:27:07;41.27;;;15.40;;
71902;SDS011;59778;50.310;18.780;2023-01-20T10:42:28;47.20;;;19.00;;
71902;SDS011;59778;50.310;18.780;2023-01-20T10:58:13;37.93;;;14.87;;
71902;SDS011;59778;50.310;18.780;2023-01-20T11:13:42;37.57;;;15.10;;
71902;SDS011;59778;50.310;18.780;2023-01-20T11:44:31;30.37;;;11.27;;
71902;SDS011;59778;50.310;18.780;2023-01-20T11:59:52;29.00;;;10.80;;
71902;SDS011;59778;50.310;18.780;2023-01-20T12:15:15;38.83;;;14.57;;
71902;SDS011;59778;50.310;18.780;2023-01-20T12:30:52;38.53;;;13.43;;
71902;SDS011;59778;50.310;18.780;2023-01-20T12:46:34;29.73;;;11.80;;
71902;SDS011;59778;50.310;18.780;2023-01-20T13:02:20;43.13;;;17.67;;
71902;SDS011;59778;50.310;18.780;2023-01-20T13:33:43;32.00;;;12.07;;
71902;SDS011;59778;50.310;18.780;2023-01-20T14:04:34;36.23;;;15.37;;
71902;SDS011;59778;50.310;18.780;2023-01-20T14:20:16;35.47;;;14.63;;
71902;SDS011;59778;50.310;18.780;2023-01-20T14:35:43;29.23;;;11.23;;
71902;SDS011;59778;50.310;18.780;2023-01-20T14:51:04;36.23;;;14.13;;
71902;SDS011;59778;50.310;18.780;2023-01-20T15:06:27;28.17;;;12.20;;
71902;SDS011;59778;50.310;18.780;2023-01-20T15:21:49;33.57;;;12.17;;
71902;SDS011;59778;50.310;18.780;2023-01-20T15:37:16;29.30;;;11.17;;
71902;SDS011;59778;50.310;18.780;2023-01-20T15:52:38;27.17;;;11.03;;
71902;SDS011;59778;50.310;18.780;2023-01-20T16:08:00;31.60;;;12.93;;
71902;SDS011;59778;50.310;18.780;2023-01-20T16:23:21;26.80;;;11.17;;
71902;SDS011;59778;50.310;18.780;2023-01-20T16:38:42;29.73;;;11.83;;
71902;SDS011;59778;50.310;18.780;2023-01-20T16:54:04;35.30;;;10.80;;
71902;SDS011;59778;50.310;18.780;2023-01-20T17:09:26;36.60;;;13.83;;
71902;SDS011;59778;50.310;18.780;2023-01-20T17:24:47;39.00;;;15.77;;
71902;SDS011;59778;50.310;18.780;2023-01-20T17:40:09;43.40;;;13.33;;
71902;SDS011;59778;50.310;18.780;2023-01-20T17:55:31;50.50;;;19.60;;
71902;SDS011;59778;50.310;18.780;2023-01-20T18:10:53;54.13;;;17.63;;
71902;SDS011;59778;50.310;18.780;2023-01-20T18:26:15;60.00;;;18.80;;
71902;SDS011;59778;50.310;18.780;2023-01-20T18:41:38;39.23;;;15.17;;
71902;SDS011;59778;50.310;18.780;2023-01-20T18:57:00;59.37;;;20.87;;
71902;SDS011;59778;50.310;18.780;2023-01-20T19:12:21;57.17;;;20.27;;
71902;SDS011;59778;50.310;18.780;2023-01-20T19:27:42;47.80;;;17.47;;
71902;SDS011;59778;50.310;18.780;2023-01-20T19:43:03;41.60;;;15.97;;
71902;SDS011;59778;50.310;18.780;2023-01-20T19:58:25;37.57;;;14.93;;
71902;SDS011;59778;50.310;18.780;2023-01-20T20:13:46;26.57;;;11.10;;
71902;SDS011;59778;50.310;18.780;2023-01-20T20:29:07;42.33;;;14.73;;
71902;SDS011;59778;50.310;18.780;2023-01-20T20:44:09;37.73;;;12.17;;
71902;SDS011;59778;50.310;18.780;2023-01-20T20:59:11;33.53;;;13.27;;
71902;SDS011;59778;50.310;18.780;2023-01-20T21:14:12;34.70;;;13.47;;
71902;SDS011;59778;50.310;18.780;2023-01-20T21:29:13;35.83;;;12.10;;
71902;SDS011;59778;50.310;18.780;2023-01-20T21:44:14;35.00;;;12.07;;
71902;SDS011;59778;50.310;18.780;2023-01-20T21:59:56;30.93;;;11.83;;
71902;SDS011;59778;50.310;18.780;2023-01-20T22:15:17;31.70;;;10.53;;
71902;SDS011;59778;50.310;18.780;2023-01-20T22:30:38;26.30;;;10.47;;
71902;SDS011;59778;50.310;18.780;2023-01-20T22:46:00;25.73;;;11.00;;
71902;SDS011;59778;50.310;18.780;2023-01-20T23:01:23;32.83;;;11.27;;
71902;SDS011;59778;50.310;18.780;2023-01-20T23:16:26;26.30;;;11.17;;
71902;SDS011;59778;50.310;18.780;2023-01-20T23:31:47;27.50;;;9.33;;
71902;SDS011;59778;50.310;18.780;2023-01-20T23:46:48;32.17;;;11.33;;
